Time;durP1;ratioP1;P1;durP2;ratioP2;P2;SDS_P1;SDS_P2;PMS_P1;PMS_P2;Temp;Humidity;BMP_temperature;BMP_pressure;BME280_temperature;BME280_humidity;BME280_pressure;Samples;Min_cycle;Max_cycle;Signal;HPM_P1;HPM_P2
2023/06/05 00:00:33;;;;;;;2.00;1.65;;;21.10;52.30;;;;;;5072184;28;20166;-59
2023/06/05 00:02:59;;;;;;;1.70;1.50;;;21.10;52.30;;;;;;5072894;28;20227;-59
2023/06/05 00:05:26;;;;;;;1.70;1.60;;;21.10;52.30;;;;;;5072388;28;20249;-59
2023/06/05 00:07:52;;;;;;;1.60;1.50;;;21.10;52.30;;;;;;5072102;28;20183;-59
2023/06/05 00:10:17;;;;;;;1.95;1.65;;;21.10;52.40;;;;;;5072457;28;20273;-59
2023/06/05 00:12:43;;;;;;;1.88;1.42;;;21.10;52.30;;;;;;5072822;28;20181;-58
2023/06/05 00:15:09;;;;;;;1.58;1.48;;;21.10;52.40;;;;;;5071685;28;20281;-59
2023/06/05 00:17:36;;;;;;;2.30;1.70;;;21.10;52.40;;;;;;5072837;28;20174;-59
2023/06/05 00:20:02;;;;;;;1.85;1.60;;;21.10;52.40;;;;;;5072633;28;20655;-59
2023/06/05 00:22:28;;;;;;;1.67;1.58;;;21.10;52.40;;;;;;5071893;28;20171;-58
2023/06/05 00:24:53;;;;;;;2.20;1.58;;;21.10;52.30;;;;;;5072850;28;20541;-59
2023/06/05 00:27:19;;;;;;;2.00;1.80;;;21.10;52.30;;;;;;5072506;28;20647;-59
2023/06/05 00:29:45;;;;;;;1.67;1.48;;;21.00;52.30;;;;;;5072062;28;20694;-58
2023/06/05 00:32:10;;;;;;;2.70;1.85;;;21.10;52.30;;;;;;5072243;28;20166;-58
2023/06/05 00:34:36;;;;;;;1.70;1.60;;;21.00;52.30;;;;;;5072570;28;20209;-58
2023/06/05 00:37:02;;;;;;;2.03;1.83;;;21.10;52.40;;;;;;5071912;28;20694;-59
2023/06/05 00:39:27;;;;;;;2.00;1.80;;;21.10;52.40;;;;;;5072431;28;20177;-58
2023/06/05 00:41:53;;;;;;;1.63;1.52;;;21.00;52.40;;;;;;5071960;28;20174;-58
2023/06/05 00:44:18;;;;;;;2.05;1.90;;;21.00;52.30;;;;;;5072117;28;20170;-58
2023/06/05 00:46:45;;;;;;;2.00;1.70;;;21.00;52.40;;;;;;5072646;28;20186;-58
2023/06/05 00:49:10;;;;;;;1.70;1.60;;;21.00;52.30;;;;;;5070181;28;20282;-58
2023/06/05 00:51:36;;;;;;;2.38;1.90;;;21.00;52.40;;;;;;5071322;28;20253;-58
2023/06/05 00:54:02;;;;;;;3.05;1.73;;;21.00;52.30;;;;;;5072756;28;20261;-58
2023/06/05 00:56:28;;;;;;;2.00;1.80;;;21.00;52.30;;;;;;5070225;28;20210;-58
2023/06/05 00:58:54;;;;;;;2.10;1.83;;;21.00;52.40;;;;;;5072367;28;20224;-58
2023/06/05 01:01:20;;;;;;;1.60;1.50;;;21.00;52.40;;;;;;5070821;28;20174;-58
2023/06/05 01:03:47;;;;;;;2.22;1.90;;;21.00;52.40;;;;;;5070305;28;20257;-59
2023/06/05 01:06:13;;;;;;;1.95;1.85;;;20.90;52.30;;;;;;5071741;28;20182;-59
2023/06/05 01:08:41;;;;;;;2.53;1.63;;;20.90;52.30;;;;;;5071087;28;20301;-58
2023/06/05 01:11:14;;;;;;;2.10;1.92;;;20.90;52.30;;;;;;5071690;28;20637;-58
2023/06/05 01:13:41;;;;;;;3.13;1.90;;;20.90;52.30;;;;;;5074704;28;20181;-58
2023/06/05 01:16:09;;;;;;;1.83;1.73;;;20.90;52.30;;;;;;5074473;28;20221;-58
2023/06/05 01:18:40;;;;;;;1.70;1.60;;;20.90;52.40;;;;;;5074251;28;20175;-58
2023/06/05 01:21:13;;;;;;;1.73;1.55;;;20.90;52.40;;;;;;5075051;28;20174;-59
2023/06/05 01:23:43;;;;;;;2.88;2.08;;;20.90;52.40;;;;;;5075887;28;20254;-58
2023/06/05 01:26:11;;;;;;;1.75;1.65;;;20.90;52.40;;;;;;5074731;28;20178;-58
2023/06/05 01:28:36;;;;;;;2.35;1.85;;;20.90;52.40;;;;;;5074545;28;20182;-59
2023/06/05 01:31:13;;;;;;;2.90;2.10;;;20.90;52.40;;;;;;5073785;28;20181;-58
2023/06/05 01:34:01;;;;;;;1.77;1.67;;;20.80;52.40;;;;;;5074724;28;20181;-58
2023/06/05 01:36:28;;;;;;;2.05;1.85;;;20.90;52.40;;;;;;5074141;28;20340;-59
2023/06/05 01:38:53;;;;;;;1.90;1.80;;;20.90;52.30;;;;;;5073499;28;20285;-59
2023/06/05 01:41:19;;;;;;;2.10;1.90;;;20.90;52.50;;;;;;5074009;28;20634;-58
2023/06/05 01:43:48;;;;;;;2.17;1.98;;;20.90;52.40;;;;;;5074573;28;20178;-59
2023/06/05 01:46:16;;;;;;;2.50;1.95;;;20.90;52.40;;;;;;5074648;28;20175;-59
2023/06/05 01:48:42;;;;;;;2.38;1.95;;;20.90;52.40;;;;;;5074341;28;20175;-59
2023/06/05 01:51:08;;;;;;;2.45;2.00;;;20.90;52.40;;;;;;5074080;28;20186;-59
2023/06/05 01:53:33;;;;;;;1.85;1.75;;;20.80;52.50;;;;;;5074581;28;20174;-59
2023/06/05 01:55:59;;;;;;;2.28;2.08;;;20.80;52.40;;;;;;5075102;28;20206;-58
2023/06/05 01:58:25;;;;;;;2.25;2.05;;;20.80;52.30;;;;;;5074843;28;20174;-59
2023/06/05 02:00:52;;;;;;;2.33;1.75;;;20.80;52.40;;;;;;5074362;28;20214;-58
2023/06/05 02:03:19;;;;;;;2.55;2.30;;;20.80;52.40;;;;;;5074872;28;20174;-59
2023/06/05 02:05:45;;;;;;;2.42;2.03;;;20.80;52.40;;;;;;5075134;28;20185;-59
2023/06/05 02:08:10;;;;;;;2.63;2.03;;;20.80;52.40;;;;;;5074029;28;20174;-59
2023/06/05 02:10:43;;;;;;;1.90;1.80;;;20.80;52.40;;;;;;5075082;28;20250;-59
2023/06/05 02:13:08;;;;;;;2.97;2.53;;;20.80;52.40;;;;;;5075060;28;20167;-59
2023/06/05 02:15:34;;;;;;;2.75;1.98;;;20.80;52.40;;;;;;5074040;28;20293;-58
2023/06/05 02:18:00;;;;;;;2.13;1.92;;;20.80;52.50;;;;;;5074931;28;20227;-59
2023/06/05 02:20:26;;;;;;;2.03;1.90;;;20.80;52.50;;;;;;5073607;28;20210;-59
2023/06/05 02:22:51;;;;;;;2.50;2.30;;;20.80;52.40;;;;;;5074482;28;20182;-59
2023/06/05 02:25:18;;;;;;;2.15;1.90;;;20.80;52.40;;;;;;5074586;28;20185;-58
2023/06/05 02:27:43;;;;;;;2.33;2.13;;;20.70;52.40;;;;;;5074053;28;20182;-58
2023/06/05 02:30:11;;;;;;;2.45;2.10;;;20.80;52.50;;;;;;5074242;28;20170;-58
2023/06/05 02:32:40;;;;;;;2.15;1.95;;;20.80;52.50;;;;;;5074545;28;20539;-58
2023/06/05 02:35:06;;;;;;;2.22;2.03;;;20.70;52.40;;;;;;5073424;28;20213;-58
2023/06/05 02:37:36;;;;;;;2.00;1.90;;;20.80;52.50;;;;;;5074148;28;20311;-58
2023/06/05 02:40:03;;;;;;;2.42;2.22;;;20.70;52.40;;;;;;5074473;28;20189;-58
2023/06/05 02:42:29;;;;;;;2.00;1.90;;;20.70;52.40;;;;;;5073489;28;20616;-59
2023/06/05 02:44:54;;;;;;;2.20;2.00;;;20.70;52.40;;;;;;5074154;28;20213;-59
2023/06/05 02:47:20;;;;;;;2.15;1.95;;;20.70;52.40;;;;;;5073898;28;20265;-59
2023/06/05 02:49:45;;;;;;;2.92;2.03;;;20.70;52.40;;;;;;5073479;28;20265;-58
2023/06/05 02:52:11;;;;;;;2.20;2.00;;;20.70;52.40;;;;;;5073695;28;20266;-59
2023/06/05 02:54:37;;;;;;;2.53;2.30;;;20.70;52.40;;;;;;5074208;28;20261;-58
2023/06/05 02:57:06;;;;;;;2.70;2.30;;;20.70;52.40;;;;;;5073105;28;20585;-58
2023/06/05 02:59:32;;;;;;;2.55;2.35;;;20.70;52.40;;;;;;5074075;28;20518;-58
2023/06/05 03:01:57;;;;;;;3.20;2.20;;;20.70;52.40;;;;;;5073963;28;20227;-58
2023/06/05 03:04:24;;;;;;;2.40;2.20;;;20.70;52.40;;;;;;5072675;28;20166;-59
2023/06/05 03:06:50;;;;;;;2.58;2.40;;;20.70;52.40;;;;;;5073787;28;20223;-59
2023/06/05 03:09:16;;;;;;;2.35;2.17;;;20.70;52.40;;;;;;5073599;28;20558;-59
2023/06/05 03:11:41;;;;;;;3.25;2.30;;;20.60;52.40;;;;;;5073176;28;20177;-58
2023/06/05 03:14:07;;;;;;;2.38;2.17;;;20.70;52.40;;;;;;5073234;28;20170;-58
2023/06/05 03:16:37;;;;;;;1.95;1.85;;;20.70;52.40;;;;;;5072531;28;20226;-59
2023/06/05 03:19:03;;;;;;;3.22;2.20;;;20.60;52.40;;;;;;5073268;28;20645;-59
2023/06/05 03:21:28;;;;;;;2.63;2.38;;;20.70;52.40;;;;;;5073057;28;20183;-58
2023/06/05 03:23:54;;;;;;;1.77;1.67;;;20.60;52.40;;;;;;5072905;28;20174;-58
2023/06/05 03:26:22;;;;;;;2.40;2.20;;;20.60;52.40;;;;;;5073235;28;20178;-59
2023/06/05 03:28:47;;;;;;;2.30;2.20;;;20.70;52.40;;;;;;5073287;28;20171;-58
2023/06/05 03:31:13;;;;;;;3.08;2.28;;;20.70;52.40;;;;;;5072268;28;20183;-58
2023/06/05 03:33:38;;;;;;;2.78;2.58;;;20.70;52.40;;;;;;5072758;28;20795;-59
2023/06/05 03:36:05;;;;;;;2.30;2.03;;;20.70;52.40;;;;;;5073193;28;20218;-59
2023/06/05 03:38:30;;;;;;;2.50;2.00;;;20.60;52.40;;;;;;5072121;28;20697;-59
2023/06/05 03:40:56;;;;;;;2.72;2.22;;;20.60;52.30;;;;;;5073264;28;20213;-59
2023/06/05 03:43:24;;;;;;;2.30;2.10;;;20.60;52.40;;;;;;5072674;28;20584;-59
2023/06/05 03:45:51;;;;;;;2.30;2.10;;;20.60;52.30;;;;;;5072232;28;20606;-59
2023/06/05 03:48:19;;;;;;;2.45;2.25;;;20.60;52.40;;;;;;5072542;28;20523;-59
2023/06/05 03:50:46;;;;;;;2.42;2.20;;;20.60;53.00;;;;;;5073157;28;20187;-58
2023/06/05 03:53:13;;;;;;;3.00;2.70;;;20.60;52.30;;;;;;5072175;28;20201;-59
2023/06/05 03:55:44;;;;;;;2.40;2.20;;;20.60;52.30;;;;;;5073026;28;20206;-59
2023/06/05 03:58:14;;;;;;;1.73;1.63;;;20.60;52.40;;;;;;5072596;28;20664;-59
2023/06/05 04:00:43;;;;;;;3.75;2.47;;;20.60;52.30;;;;;;5072164;28;20200;-59
2023/06/05 04:03:09;;;;;;;2.58;2.25;;;20.60;52.40;;;;;;5072688;28;20175;-60
2023/06/05 04:05:35;;;;;;;2.45;2.20;;;20.60;52.30;;;;;;5073024;28;20174;-59
2023/06/05 04:08:01;;;;;;;2.30;2.10;;;20.60;52.30;;;;;;5072345;28;20288;-59
2023/06/05 04:10:27;;;;;;;3.83;2.70;;;20.60;52.30;;;;;;5072825;28;20174;-58
2023/06/05 04:12:52;;;;;;;2.22;2.03;;;20.60;52.30;;;;;;5072185;28;20170;-58
2023/06/05 04:15:18;;;;;;;2.25;2.15;;;20.60;52.30;;;;;;5072406;28;20206;-59
2023/06/05 04:17:43;;;;;;;2.88;2.58;;;20.60;52.30;;;;;;5072682;28;20179;-59
2023/06/05 04:20:14;;;;;;;2.58;2.38;;;20.60;52.30;;;;;;5071964;28;20178;-59
2023/06/05 04:22:40;;;;;;;2.38;2.17;;;20.60;52.30;;;;;;5072892;28;20174;-58
2023/06/05 04:25:05;;;;;;;2.75;2.22;;;20.60;52.30;;;;;;5072601;28;20192;-58
2023/06/05 04:27:31;;;;;;;2.85;2.58;;;20.60;52.30;;;;;;5072064;28;20171;-58
2023/06/05 04:29:56;;;;;;;2.17;2.08;;;20.60;52.30;;;;;;5072650;28;20177;-58
2023/06/05 04:32:22;;;;;;;2.67;2.47;;;20.60;52.30;;;;;;5072047;28;20166;-58
2023/06/05 04:34:48;;;;;;;3.03;2.83;;;20.60;52.30;;;;;;5072086;28;20175;-59
2023/06/05 04:37:13;;;;;;;3.40;2.67;;;20.60;52.30;;;;;;5072234;28;20229;-58
2023/06/05 04:39:39;;;;;;;2.47;2.28;;;20.60;52.30;;;;;;5072840;28;20166;-58
2023/06/05 04:42:04;;;;;;;2.15;2.05;;;20.60;52.20;;;;;;5071972;28;20540;-59
2023/06/05 04:44:31;;;;;;;2.25;2.10;;;20.60;52.30;;;;;;5072185;28;20529;-59
2023/06/05 04:46:56;;;;;;;2.47;2.28;;;20.60;52.20;;;;;;5075675;28;20622;-59
2023/06/05 04:49:26;;;;;;;2.30;2.10;;;20.60;52.20;;;;;;5075699;28;20178;-58
2023/06/05 04:51:53;;;;;;;2.58;2.38;;;20.60;52.30;;;;;;5076593;28;20182;-58
2023/06/05 04:54:18;;;;;;;2.70;2.50;;;20.60;52.30;;;;;;5076175;28;20178;-58
2023/06/05 04:56:45;;;;;;;2.95;2.58;;;20.60;52.30;;;;;;5075546;28;20575;-58
2023/06/05 04:59:11;;;;;;;2.05;1.90;;;20.60;52.20;;;;;;5075881;28;20174;-58
2023/06/05 05:01:36;;;;;;;2.40;2.00;;;20.60;52.30;;;;;;5076378;28;20179;-59
2023/06/05 05:04:02;;;;;;;2.40;2.17;;;20.60;52.30;;;;;;5075655;28;20171;-58
2023/06/05 05:06:27;;;;;;;2.40;2.20;;;20.60;52.30;;;;;;5075875;28;20261;-59
2023/06/05 05:08:53;;;;;;;2.28;2.08;;;20.60;52.20;;;;;;5076347;28;20178;-59
2023/06/05 05:11:19;;;;;;;2.90;2.53;;;20.60;52.30;;;;;;5075192;28;20256;-58
2023/06/05 05:13:45;;;;;;;3.38;2.35;;;20.60;52.30;;;;;;5076015;28;20586;-58
2023/06/05 05:16:10;;;;;;;1.98;1.88;;;20.60;52.20;;;;;;5075130;28;20570;-59
2023/06/05 05:18:40;;;;;;;2.45;2.08;;;20.60;52.30;;;;;;5076152;28;20178;-61
2023/06/05 05:21:06;;;;;;;2.03;1.83;;;20.60;52.30;;;;;;5075768;28;20645;-59
2023/06/05 05:23:32;;;;;;;2.45;2.25;;;20.60;52.30;;;;;;5075181;28;20209;-59
2023/06/05 05:25:57;;;;;;;2.30;2.10;;;20.60;52.30;;;;;;5075747;28;20206;-59
2023/06/05 05:28:23;;;;;;;2.92;2.63;;;20.60;52.90;;;;;;5075281;28;20195;-58
2023/06/05 05:30:49;;;;;;;2.25;2.05;;;20.60;52.30;;;;;;5075028;28;20600;-59
2023/06/05 05:33:17;;;;;;;2.50;2.30;;;20.60;52.30;;;;;;5075480;28;20697;-59
2023/06/05 05:35:43;;;;;;;2.65;2.38;;;20.60;52.30;;;;;;5075522;28;20209;-60
2023/06/05 05:38:09;;;;;;;3.00;2.58;;;20.60;52.30;;;;;;5074673;28;20222;-59
2023/06/05 05:40:34;;;;;;;2.60;2.40;;;20.60;52.30;;;;;;5075798;28;20201;-59
2023/06/05 05:43:00;;;;;;;2.50;2.30;;;20.60;52.30;;;;;;5075484;28;20171;-60
2023/06/05 05:45:26;;;;;;;2.42;2.15;;;20.60;52.30;;;;;;5074437;28;20178;-59
2023/06/05 05:47:51;;;;;;;2.53;2.33;;;20.60;52.30;;;;;;5075549;28;20173;-59
2023/06/05 05:50:17;;;;;;;2.35;2.10;;;20.60;52.30;;;;;;5075202;28;20178;-59
2023/06/05 05:52:47;;;;;;;3.50;2.38;;;20.60;52.30;;;;;;5074781;28;20167;-59
2023/06/05 05:55:13;;;;;;;2.30;2.15;;;20.60;52.40;;;;;;5074881;28;20194;-59
2023/06/05 05:57:38;;;;;;;2.17;2.05;;;20.60;52.30;;;;;;5074803;28;20243;-59
2023/06/05 06:00:12;;;;;;;3.10;2.38;;;20.60;52.40;;;;;;5074578;28;20182;-59
2023/06/05 06:02:39;;;;;;;3.17;2.50;;;20.60;52.40;;;;;;5075123;28;20238;-59
2023/06/05 06:05:07;;;;;;;2.47;2.28;;;20.60;52.40;;;;;;5075169;28;20170;-59
2023/06/05 06:07:33;;;;;;;2.25;2.15;;;20.60;52.40;;;;;;5074255;28;20195;-59
2023/06/05 06:09:59;;;;;;;2.78;2.17;;;20.60;52.40;;;;;;5074951;28;20367;-58
2023/06/05 06:12:24;;;;;;;2.40;2.20;;;20.60;52.40;;;;;;5074180;28;20206;-58
2023/06/05 06:14:50;;;;;;;3.08;2.05;;;20.60;52.40;;;;;;5074914;28;20202;-59
2023/06/05 06:17:15;;;;;;;2.53;2.33;;;20.60;52.40;;;;;;5074649;28;20204;-59
2023/06/05 06:19:42;;;;;;;2.28;2.03;;;20.60;52.40;;;;;;5074296;28;20178;-59
2023/06/05 06:22:11;;;;;;;3.63;2.10;;;20.60;52.40;;;;;;5074482;28;20664;-58
2023/06/05 06:24:38;;;;;;;2.50;2.30;;;20.70;52.50;;;;;;5074647;28;20539;-58
2023/06/05 06:27:04;;;;;;;2.60;2.40;;;20.60;53.10;;;;;;5074048;28;20174;-58
2023/06/05 06:29:31;;;;;;;2.80;2.40;;;20.60;52.40;;;;;;5074382;28;20669;-59
2023/06/05 06:31:56;;;;;;;2.60;2.40;;;20.60;52.40;;;;;;5074666;28;20171;-59
2023/06/05 06:34:22;;;;;;;2.83;2.28;;;20.60;52.50;;;;;;5073517;28;20216;-58
2023/06/05 06:36:47;;;;;;;2.83;2.47;;;20.70;52.50;;;;;;5074315;28;20595;-59
2023/06/05 06:39:13;;;;;;;2.10;2.00;;;20.70;52.50;;;;;;5074004;28;20186;-58
2023/06/05 06:41:38;;;;;;;2.70;2.50;;;20.70;52.60;;;;;;5073557;28;20681;-60
2023/06/05 06:44:04;;;;;;;3.17;2.42;;;20.70;52.50;;;;;;5074512;28;20266;-60
2023/06/05 06:46:30;;;;;;;4.18;2.45;;;20.70;52.70;;;;;;5074224;28;20182;-69
2023/06/05 06:48:56;;;;;;;3.58;2.25;;;20.70;52.60;;;;;;5072994;28;20637;-70
2023/06/05 06:51:24;;;;;;;3.33;2.58;;;20.80;52.50;;;;;;5073746;28;21590;-68
2023/06/05 06:53:50;;;;;;;3.70;2.42;;;20.80;52.50;;;;;;5072919;28;20255;-69
2023/06/05 06:56:17;;;;;;;3.80;2.20;;;20.90;52.60;;;;;;5072833;28;20697;-69
2023/06/05 06:58:43;;;;;;;5.13;2.22;;;20.90;52.50;;;;;;5073639;28;20241;-69
2023/06/05 07:01:09;;;;;;;3.38;2.08;;;20.90;52.60;;;;;;5072828;28;20175;-70
2023/06/05 07:03:35;;;;;;;3.25;2.53;;;20.90;52.60;;;;;;5072606;28;20178;-72
2023/06/05 07:06:01;;;;;;;3.53;2.13;;;20.90;52.60;;;;;;5073225;28;20185;-67
2023/06/05 07:08:26;;;;;;;2.55;2.35;;;20.90;52.70;;;;;;5072706;28;20179;-67
2023/06/05 07:10:55;;;;;;;3.50;2.58;;;20.90;52.60;;;;;;5073081;28;20178;-66
2023/06/05 07:13:20;;;;;;;2.97;2.15;;;20.90;52.60;;;;;;5073600;28;20179;-66
2023/06/05 07:15:47;;;;;;;2.85;2.55;;;20.90;52.60;;;;;;5073020;28;20216;-65
2023/06/05 07:18:12;;;;;;;5.07;2.42;;;20.90;52.70;;;;;;5073453;28;20171;-66
2023/06/05 07:20:38;;;;;;;3.15;2.00;;;20.90;52.70;;;;;;5073482;28;20304;-66
2023/06/05 07:23:03;;;;;;;2.63;2.33;;;20.90;52.80;;;;;;5072797;28;20173;-65
2023/06/05 07:25:29;;;;;;;2.60;2.40;;;20.80;52.70;;;;;;5073440;28;20178;-66
2023/06/05 07:27:54;;;;;;;3.88;2.80;;;20.90;52.70;;;;;;5073743;28;20171;-66
2023/06/05 07:30:20;;;;;;;4.15;1.95;;;20.90;52.70;;;;;;5072602;28;20237;-67
2023/06/05 07:32:46;;;;;;;2.63;2.10;;;20.90;52.80;;;;;;5073580;28;20181;-67
2023/06/05 07:35:12;;;;;;;3.05;2.10;;;20.90;52.70;;;;;;5073115;28;20668;-68
2023/06/05 07:37:38;;;;;;;2.28;2.05;;;20.90;52.60;;;;;;5072301;28;20720;-68
2023/06/05 07:40:05;;;;;;;2.83;2.00;;;20.90;52.60;;;;;;5073456;28;20194;-66
2023/06/05 07:42:31;;;;;;;4.88;2.20;;;21.00;52.70;;;;;;5073361;28;20182;-67
2023/06/05 07:44:56;;;;;;;2.47;1.98;;;21.00;52.70;;;;;;5072281;28;20261;-66
2023/06/05 07:47:22;;;;;;;2.55;1.98;;;21.00;52.70;;;;;;5072768;28;20177;-66
2023/06/05 07:50:00;;;;;;;2.38;2.17;;;21.00;52.70;;;;;;5073124;28;20177;-67
2023/06/05 07:52:30;;;;;;;2.65;2.45;;;21.00;52.70;;;;;;5072009;28;20723;-66
2023/06/05 07:54:55;;;;;;;2.17;1.97;;;21.00;52.60;;;;;;5073173;28;20177;-66
2023/06/05 07:57:21;;;;;;;2.95;2.30;;;21.00;52.70;;;;;;5072769;28;20170;-67
2023/06/05 07:59:48;;;;;;;3.17;2.25;;;21.10;52.70;;;;;;5072621;28;20269;-67
2023/06/05 08:02:14;;;;;;;3.10;2.53;;;21.10;52.60;;;;;;5072778;28;20224;-67
2023/06/05 08:04:40;;;;;;;2.10;2.00;;;21.10;52.60;;;;;;5072910;28;20182;-67
2023/06/05 08:07:06;;;;;;;2.42;2.20;;;21.10;52.60;;;;;;5072204;28;20167;-67
2023/06/05 08:09:33;;;;;;;2.47;2.20;;;21.10;52.60;;;;;;5072715;28;20261;-67
2023/06/05 08:11:59;;;;;;;2.63;2.42;;;21.10;52.60;;;;;;5072266;28;20170;-66
2023/06/05 08:14:25;;;;;;;2.50;2.30;;;21.20;52.60;;;;;;5072660;28;20532;-67
2023/06/05 08:16:51;;;;;;;2.35;2.13;;;21.20;52.60;;;;;;5072773;28;20693;-67
2023/06/05 08:19:17;;;;;;;2.20;2.00;;;21.20;52.60;;;;;;5071617;28;20186;-66
2023/06/05 08:21:42;;;;;;;4.32;2.42;;;21.20;52.60;;;;;;5072716;28;20174;-66
2023/06/05 08:24:08;;;;;;;2.05;1.95;;;21.10;52.50;;;;;;5072619;28;20174;-65
2023/06/05 08:26:33;;;;;;;2.63;2.38;;;21.20;52.60;;;;;;5072137;28;20261;-66
2023/06/05 08:28:59;;;;;;;2.90;1.90;;;21.20;52.60;;;;;;5072851;28;20261;-66
2023/06/05 08:31:25;;;;;;;3.28;2.10;;;21.20;52.60;;;;;;5072484;28;20648;-67
2023/06/05 08:33:51;;;;;;;1.92;1.83;;;21.20;52.60;;;;;;5071857;28;20178;-68
2023/06/05 08:36:17;;;;;;;3.28;2.00;;;21.20;52.60;;;;;;5072337;28;20292;-67
2023/06/05 08:38:43;;;;;;;3.20;2.20;;;21.20;52.60;;;;;;5072398;28;20218;-67
2023/06/05 08:41:12;;;;;;;2.40;2.20;;;21.30;52.60;;;;;;5071571;28;20177;-66
2023/06/05 08:43:38;;;;;;;3.67;2.00;;;21.30;52.60;;;;;;5072462;28;20174;-67
2023/06/05 08:46:04;;;;;;;2.28;2.15;;;21.30;52.60;;;;;;5072524;28;20595;-66
2023/06/05 08:48:30;;;;;;;2.10;1.90;;;21.30;52.60;;;;;;5071455;28;20182;-66
2023/06/05 08:50:56;;;;;;;3.25;2.38;;;21.30;52.60;;;;;;5054652;28;20223;-66
2023/06/05 08:53:21;;;;;;;3.13;2.30;;;21.30;52.60;;;;;;5054601;28;20250;-66
2023/06/05 08:55:48;;;;;;;2.25;2.15;;;21.30;52.60;;;;;;5070515;28;20209;-66
2023/06/05 08:58:13;;;;;;;2.38;1.90;;;21.40;52.70;;;;;;5070882;28;20175;-67
2023/06/05 09:00:39;;;;;;;2.28;2.08;;;21.40;52.70;;;;;;5072571;28;20633;-67
2023/06/05 09:03:05;;;;;;;2.30;2.17;;;21.40;52.70;;;;;;5071677;28;20191;-67
2023/06/05 09:05:31;;;;;;;2.88;2.45;;;21.40;52.70;;;;;;5072197;28;20553;-67
2023/06/05 09:07:56;;;;;;;2.70;2.42;;;21.40;52.70;;;;;;5072579;28;20178;-66
2023/06/05 09:10:27;;;;;;;2.97;2.05;;;21.30;52.60;;;;;;5070189;28;20185;-66
2023/06/05 09:12:57;;;;;;;2.42;2.22;;;21.40;52.70;;;;;;5072318;28;20258;-66
2023/06/05 09:15:27;;;;;;;3.10;2.08;;;21.40;52.70;;;;;;5071018;28;20577;-66
2023/06/05 09:18:08;;;;;;;2.70;2.45;;;21.40;52.70;;;;;;5072450;28;20232;-65
2023/06/05 09:20:35;;;;;;;2.17;1.92;;;21.40;52.70;;;;;;5072263;28;20189;-66
2023/06/05 09:23:02;;;;;;;2.72;2.40;;;21.50;52.70;;;;;;5071655;28;20202;-65
2023/06/05 09:25:44;;;;;;;2.28;1.80;;;21.50;52.70;;;;;;5071878;28;20174;-66
2023/06/05 09:28:10;;;;;;;2.22;2.03;;;21.50;52.70;;;;;;5070694;28;20183;-66
2023/06/05 09:30:57;;;;;;;2.15;1.83;;;21.50;52.70;;;;;;5071570;28;20365;-67
2023/06/05 09:33:23;;;;;;;2.47;1.92;;;21.50;52.70;;;;;;5074385;28;20257;-67
2023/06/05 09:36:06;;;;;;;2.53;2.33;;;21.60;52.80;;;;;;5075750;28;20302;-67
2023/06/05 09:38:31;;;;;;;2.53;2.00;;;21.60;52.80;;;;;;5073678;28;20230;-67
2023/06/05 09:41:10;;;;;;;2.97;1.77;;;21.60;52.80;;;;;;5076024;28;20186;-67
2023/06/05 09:43:36;;;;;;;2.53;2.00;;;21.60;52.80;;;;;;5075061;28;20174;-67
2023/06/05 09:46:09;;;;;;;2.20;1.95;;;21.60;52.80;;;;;;5075675;28;20170;-67
2023/06/05 09:48:36;;;;;;;2.15;1.80;;;21.60;52.80;;;;;;5075488;28;20171;-67
2023/06/05 09:51:14;;;;;;;2.25;2.13;;;21.60;52.80;;;;;;5074610;28;20178;-66
2023/06/05 09:53:47;;;;;;;2.42;2.33;;;21.70;52.80;;;;;;5075289;28;20526;-66
2023/06/05 09:56:14;;;;;;;2.25;2.00;;;21.70;52.80;;;;;;5074916;28;20263;-66
2023/06/05 09:58:44;;;;;;;2.78;1.98;;;21.70;52.80;;;;;;5074739;28;20181;-67
2023/06/05 10:01:10;;;;;;;1.70;1.60;;;21.70;52.80;;;;;;5074756;28;20210;-67
2023/06/05 10:03:36;;;;;;;2.47;1.73;;;21.70;52.80;;;;;;5074305;28;20213;-67
2023/06/05 10:06:02;;;;;;;2.63;1.98;;;21.70;52.80;;;;;;5074396;28;20178;-67
2023/06/05 10:08:28;;;;;;;2.58;2.03;;;21.70;52.80;;;;;;5073673;28;20541;-67
2023/06/05 10:10:55;;;;;;;3.00;1.90;;;21.70;52.80;;;;;;5074030;28;20254;-66
2023/06/05 10:13:20;;;;;;;2.47;2.00;;;21.80;52.80;;;;;;5072722;28;20179;-66
2023/06/05 10:15:46;;;;;;;2.30;1.98;;;21.80;52.80;;;;;;5073679;28;20224;-66
2023/06/05 10:18:11;;;;;;;2.47;2.13;;;21.80;52.80;;;;;;5056761;28;20171;-66
2023/06/05 10:20:37;;;;;;;1.98;1.88;;;21.80;52.90;;;;;;5073121;28;20185;-66
2023/06/05 10:23:02;;;;;;;2.38;2.10;;;21.80;52.90;;;;;;5073572;28;20174;-65
2023/06/05 10:25:28;;;;;;;2.15;1.98;;;21.80;52.90;;;;;;5056621;28;20174;-66
2023/06/05 10:28:25;;;;;;;2.08;1.83;;;21.80;52.80;;;;;;5074174;28;20548;-66
2023/06/05 10:31:09;;;;;;;2.42;1.90;;;21.90;52.90;;;;;;5074772;28;20175;-68
2023/06/05 10:33:47;;;;;;;2.08;1.88;;;21.90;52.90;;;;;;5072866;28;20541;-68
2023/06/05 10:36:40;;;;;;;6.15;2.75;;;21.90;52.90;;;;;;5072878;28;20331;-67
2023/06/05 10:39:09;;;;;;;3.65;2.10;;;21.90;53.00;;;;;;5074100;28;20233;-67
2023/06/05 10:41:35;;;;;;;2.65;1.80;;;21.90;52.90;;;;;;5056426;28;20704;-67
2023/06/05 10:44:00;;;;;;;2.05;1.88;;;21.90;53.00;;;;;;5055404;28;20326;-66
2023/06/05 10:46:26;;;;;;;2.08;1.88;;;21.90;53.10;;;;;;5074064;28;20179;-67
2023/06/05 10:49:17;;;;;;;2.50;2.30;;;22.00;53.20;;;;;;5073643;28;20167;-67
2023/06/05 10:51:43;;;;;;;3.28;2.17;;;22.00;53.20;;;;;;5074200;28;20542;-67
2023/06/05 10:54:15;;;;;;;4.95;2.47;;;22.00;53.20;;;;;;5073426;28;20181;-66
2023/06/05 10:57:01;;;;;;;3.33;2.15;;;22.00;53.30;;;;;;5074599;28;20221;-67
2023/06/05 10:59:31;;;;;;;3.20;2.13;;;22.00;53.30;;;;;;5073812;28;20668;-69
2023/06/05 11:02:14;;;;;;;8.73;2.50;;;22.00;53.30;;;;;;5073607;28;20181;-68
2023/06/05 11:04:46;;;;;;;4.03;2.40;;;22.00;53.30;;;;;;5074202;28;20256;-68
2023/06/05 11:07:28;;;;;;;10.02;3.22;;;22.00;53.30;;;;;;5073757;28;20637;-68
2023/06/05 11:10:02;;;;;;;6.10;2.63;;;22.00;53.40;;;;;;5073150;28;20676;-68
2023/06/05 11:12:40;;;;;;;7.38;3.03;;;22.10;53.50;;;;;;5073557;28;20718;-67
2023/06/05 11:15:09;;;;;;;6.30;3.25;;;22.10;53.50;;;;;;5072958;28;20186;-67
2023/06/05 11:17:36;;;;;;;4.82;2.45;;;22.10;53.50;;;;;;5073389;28;20592;-67
2023/06/05 11:20:07;;;;;;;4.15;3.13;;;22.10;53.50;;;;;;5073644;28;20228;-67
2023/06/05 11:22:33;;;;;;;5.82;2.67;;;22.10;53.50;;;;;;5072776;28;20206;-67
2023/06/05 11:25:16;;;;;;;6.53;3.00;;;22.10;53.50;;;;;;5072615;28;20202;-66
2023/06/05 11:27:46;;;;;;;7.28;2.50;;;22.10;53.50;;;;;;5073493;28;20758;-67
2023/06/05 11:30:12;;;;;;;6.50;2.60;;;22.10;53.60;;;;;;5072637;28;20224;-67
2023/06/05 11:32:38;;;;;;;4.53;3.20;;;22.10;53.50;;;;;;5073543;28;20212;-69
2023/06/05 11:35:04;;;;;;;4.50;2.65;;;22.10;53.60;;;;;;5073251;28;20175;-72
2023/06/05 11:37:32;;;;;;;5.18;2.60;;;22.20;53.60;;;;;;5054535;28;20712;-68
2023/06/05 11:39:58;;;;;;;4.40;2.35;;;22.20;53.80;;;;;;5073319;28;20545;-69
2023/06/05 11:42:24;;;;;;;6.18;3.00;;;22.20;53.50;;;;;;5073183;28;20186;-69
2023/06/05 11:44:49;;;;;;;6.38;3.13;;;22.20;53.50;;;;;;5072726;28;20629;-69
2023/06/05 11:47:30;;;;;;;4.30;2.47;;;22.30;53.50;;;;;;5071826;28;20170;-70
2023/06/05 11:50:12;;;;;;;6.25;2.78;;;22.30;53.40;;;;;;5073279;28;20641;-67
2023/06/05 11:52:37;;;;;;;6.38;2.92;;;22.20;53.40;;;;;;5073710;28;20178;-67
2023/06/05 11:55:22;;;;;;;5.03;2.45;;;22.20;53.50;;;;;;5072920;28;20181;-67
2023/06/05 11:57:48;;;;;;;6.95;2.70;;;22.20;53.50;;;;;;5072426;28;20209;-67
2023/06/05 12:00:14;;;;;;;4.30;2.67;;;22.20;53.50;;;;;;5072911;28;20194;-68
2023/06/05 12:02:43;;;;;;;5.43;2.75;;;22.20;53.50;;;;;;5073236;28;20589;-68
2023/06/05 12:05:09;;;;;;;7.10;2.85;;;22.20;53.40;;;;;;5070918;28;20170;-69
2023/06/05 12:07:39;;;;;;;4.32;2.22;;;22.30;53.40;;;;;;5073038;28;20178;-68
2023/06/05 12:10:06;;;;;;;3.50;2.33;;;22.30;53.40;;;;;;5072829;28;20258;-67
2023/06/05 12:12:33;;;;;;;5.47;2.63;;;22.30;53.40;;;;;;5071938;28;20178;-68
2023/06/05 12:15:13;;;;;;;3.78;2.17;;;22.30;53.40;;;;;;5072812;28;20539;-67
2023/06/05 12:17:38;;;;;;;5.30;2.42;;;22.30;53.30;;;;;;5071732;28;20228;-67
2023/06/05 12:20:04;;;;;;;5.53;2.50;;;22.30;53.30;;;;;;5072237;28;20170;-67
2023/06/05 12:22:33;;;;;;;3.95;3.00;;;22.30;53.20;;;;;;5054566;28;20174;-67
2023/06/05 12:25:23;;;;;;;3.85;2.33;;;22.30;53.20;;;;;;5072761;28;20201;-67
2023/06/05 12:27:48;;;;;;;3.10;2.25;;;22.30;53.20;;;;;;5072751;28;20502;-67
2023/06/05 12:30:16;;;;;;;4.75;2.40;;;22.30;53.10;;;;;;5072492;28;20203;-68
2023/06/05 12:32:43;;;;;;;4.15;2.75;;;22.40;53.20;;;;;;5072039;28;20554;-68
2023/06/05 12:35:21;;;;;;;4.68;2.25;;;22.40;53.10;;;;;;5072621;28;20182;-69
2023/06/05 12:37:48;;;;;;;4.53;2.55;;;22.40;53.20;;;;;;5072618;28;20233;-68
2023/06/05 12:40:14;;;;;;;3.30;2.90;;;22.40;53.10;;;;;;5071740;28;20253;-69
2023/06/05 12:42:43;;;;;;;4.35;2.50;;;22.40;53.10;;;;;;5072753;28;20205;-68
2023/06/05 12:45:09;;;;;;;3.85;2.78;;;22.40;53.10;;;;;;5072325;28;20182;-69
2023/06/05 12:47:34;;;;;;;3.17;2.25;;;22.40;53.10;;;;;;5071822;28;20193;-68
2023/06/05 12:50:01;;;;;;;6.85;2.88;;;22.40;53.10;;;;;;5072621;28;20166;-67